Snohomish County (Paine Field) Airport
KPAE : now visible

Airfield :











YOU CAN JOIN US ON...

 
LOGIN :

Register | Disclaimer

   EN    FR    IT 

 









Legend :    VFR   Marginal VFR   IFR   Intensive IFR   Very Intensive IFR
Visi :
Ceiling :
>= 8 km
>= 3000ft
5 to 8 km
1000 to 3000 ft
1500m to 5 km
500 to 1000 ft
800 to 1500m
200 to 500 ft
< 800m
< 200 ft
Symbols :   Thunderstorms  Fog  Heavy snow  Heavy precipitations  Wind > 20 kt






- Airport Elevation : 606 ft
- IATA code : PAE


KPAE - Snohomish County (Paine Field)

CURRENT METAR :
  • 140558Z AUTO 05003KT 1/2SM R16R/1400V2600FT FG VV001 08/08 A3005 RMK AO2 T00830078

EXPIRED METARs :
  • 140553Z AUTO 01003KT 1/4SM R16R/1200V1600FT FG VV001 08/08 A3004 RMK AO2 SLP176 T00830078 10100 20083 56004
  • 140542Z AUTO 36003KT 1/4SM R16R/1400V2200FT FG VV001 08/08 A3004 RMK AO2 T00830078
  • 140534Z AUTO 35004KT 1/4SM R16R/1400V2400FT FG VV001 08/08 A3005 RMK AO2 T00830078
  • 140520Z AUTO 02004KT 3/4SM R16R/1600V6000FT BR VV001 08/08 A3004 RMK AO2 T00830078
  • 140509Z AUTO 03003KT 1 1/4SM R16R/2600V5500FT BR OVC001 09/08 A3005 RMK AO2 T00890083
  • 140500Z AUTO 00000KT 1 1/4SM R16R/5500VP6000FT BR OVC002 09/08 A3005 RMK AO2 T00890078
  • 140453Z AUTO 03003KT 1/4SM R16R/P6000FT FG OVC002 09/08 A3005 RMK AO2 SLP176 T00890078
  • 140353Z 00000KT 1/4SM R16R/P6000FT FG OVC002 09/08 A3005 RMK AO2 SLP179 T00890083

TAF KPAE
Valid from the 14 at 06:00 until the 15 at 06:00 UTC


140535Z 1406/1506 03003KT 1SM BR OVC001
TEMPO 1406/1410 1/4SM FG OVC003
FM141400 14004KT 2SM BR OVC004
FM142000 16005KT P6SM OVC120



MET'MAP, your aeronautical weather chart ! - Copyright ORBIFLY December 2007 - Disclaimer

ORBIFLY MET'MAP TEAM :

Programming & Development : Alexandra Zaïnal
Concept & Development : Baudouin d'Aumeries
Co-Development & Prog : Marc-Olivier Méhu
Technical & hardware support : Manuel Goepfert

Contact : metmap@orbifly.com




SOURCES & CREDITS :

   NOAA       Earth
Advisory